Time;durP1;ratioP1;P1;durP2;ratioP2;P2;SDS_P1;SDS_P2;PMS_P1;PMS_P2;Temp;Humidity;BMP_temperature;BMP_pressure;BME280_temperature;BME280_humidity;BME280_pressure;Samples;Min_cycle;Max_cycle;Signal;HPM_P1;HPM_P2
2023/06/14 00:02:08;;;;;;;8.52;4.60;;;;;;;;;;6305915;22;20212;-92
2023/06/14 00:05:15;;;;;;;7.38;4.07;;;;;;;;;;6305023;22;20175;-93
2023/06/14 00:08:22;;;;;;;8.20;4.10;;;;;;;;;;6306274;22;20201;-90
2023/06/14 00:11:28;;;;;;;8.50;4.25;;;;;;;;;;6306491;22;20149;-91
2023/06/14 00:14:33;;;;;;;6.95;3.67;;;;;;;;;;6307438;22;20220;-92
2023/06/14 00:17:38;;;;;;;9.40;4.32;;;;;;;;;;6305909;22;20232;-91
2023/06/14 00:20:46;;;;;;;8.93;4.00;;;;;;;;;;6305345;22;20160;-93
2023/06/14 00:23:51;;;;;;;9.60;4.60;;;;;;;;;;6304455;22;20170;-90
2023/06/14 00:26:56;;;;;;;6.35;3.67;;;;;;;;;;6306647;22;20169;-90
2023/06/14 00:30:02;;;;;;;8.65;4.28;;;;;;;;;;6305954;22;20271;-92
2023/06/14 00:33:07;;;;;;;9.98;4.07;;;;;;;;;;6304178;22;20295;-91
2023/06/14 00:36:14;;;;;;;7.28;4.00;;;;;;;;;;6306409;22;20176;-90
2023/06/14 00:39:21;;;;;;;6.47;3.72;;;;;;;;;;6306307;22;20165;-93
2023/06/14 00:42:27;;;;;;;6.03;3.47;;;;;;;;;;6304495;22;20169;-91
2023/06/14 00:45:35;;;;;;;7.05;3.78;;;;;;;;;;6304532;22;20494;-92
2023/06/14 00:48:41;;;;;;;9.98;3.47;;;;;;;;;;6302566;22;20184;-90
2023/06/14 00:51:48;;;;;;;8.77;4.32;;;;;;;;;;6304911;22;20160;-90
2023/06/14 00:54:54;;;;;;;7.03;3.97;;;;;;;;;;6305175;22;20165;-90
2023/06/14 01:01:50;;;;;;;12.68;4.00;;;;;;;;;;6305875;22;20141;-92
2023/06/14 01:04:56;;;;;;;7.55;3.97;;;;;;;;;;6304405;22;20177;-94
2023/06/14 01:08:11;;;;;;;13.93;5.13;;;;;;;;;;6305275;22;20168;-92
2023/06/14 01:11:21;;;;;;;9.13;4.82;;;;;;;;;;6305432;22;20156;-93
2023/06/14 01:14:27;;;;;;;8.75;4.20;;;;;;;;;;6304938;22;20181;-91
2023/06/14 01:17:43;;;;;;;10.23;5.05;;;;;;;;;;6305711;22;20180;-92
2023/06/14 01:20:50;;;;;;;17.17;4.45;;;;;;;;;;6306857;22;20157;-91
2023/06/14 01:23:58;;;;;;;11.65;4.30;;;;;;;;;;6304646;22;20493;-91
2023/06/14 01:27:05;;;;;;;7.93;3.90;;;;;;;;;;6305896;22;20152;-93
2023/06/14 01:30:11;;;;;;;8.48;4.18;;;;;;;;;;6306236;22;20169;-94
2023/06/14 01:33:20;;;;;;;8.15;4.07;;;;;;;;;;6307253;22;20246;-94
2023/06/14 01:36:29;;;;;;;7.18;3.60;;;;;;;;;;6306864;22;20168;-91
2023/06/14 01:39:37;;;;;;;12.10;3.58;;;;;;;;;;6304841;22;20168;-90
2023/06/14 01:42:43;;;;;;;9.38;3.80;;;;;;;;;;6303207;22;20149;-91
2023/06/14 01:45:49;;;;;;;5.97;3.28;;;;;;;;;;6304857;22;20160;-91
2023/06/14 01:48:55;;;;;;;9.95;3.65;;;;;;;;;;6307608;22;20192;-91
2023/06/14 01:52:01;;;;;;;12.18;4.97;;;;;;;;;;6306661;22;20161;-92
2023/06/14 01:55:09;;;;;;;11.80;4.30;;;;;;;;;;6305649;22;20161;-92
2023/06/14 01:58:41;;;;;;;10.88;4.25;;;;;;;;;;6308099;22;20240;-92
2023/06/14 02:01:46;;;;;;;11.15;4.57;;;;;;;;;;6309281;22;20233;-91
2023/06/14 02:04:52;;;;;;;8.80;4.20;;;;;;;;;;6308101;22;20220;-90
2023/06/14 02:07:57;;;;;;;8.65;4.80;;;;;;;;;;6306834;22;20153;-91
2023/06/14 02:11:04;;;;;;;9.73;4.93;;;;;;;;;;6306256;22;20214;-93
2023/06/14 02:14:11;;;;;;;10.82;4.90;;;;;;;;;;6307289;22;20213;-91
2023/06/14 02:17:17;;;;;;;14.25;5.10;;;;;;;;;;6307045;22;20180;-92
2023/06/14 02:20:22;;;;;;;12.15;4.70;;;;;;;;;;6305543;22;20200;-90
2023/06/14 02:23:28;;;;;;;11.02;4.95;;;;;;;;;;6305850;22;20181;-90
2023/06/14 02:26:35;;;;;;;8.82;4.80;;;;;;;;;;6305810;22;20188;-91
2023/06/14 02:29:40;;;;;;;10.93;4.78;;;;;;;;;;6307000;22;20280;-92
2023/06/14 02:32:45;;;;;;;13.02;4.28;;;;;;;;;;6307960;22;20618;-93
2023/06/14 02:35:52;;;;;;;10.65;5.00;;;;;;;;;;6306551;22;20166;-91
2023/06/14 02:38:58;;;;;;;10.63;5.18;;;;;;;;;;6305949;22;20184;-93
2023/06/14 02:42:06;;;;;;;10.15;4.75;;;;;;;;;;6305801;22;20160;-92
2023/06/14 02:45:11;;;;;;;10.60;4.57;;;;;;;;;;6308041;22;20173;-92
2023/06/14 02:48:16;;;;;;;13.05;5.55;;;;;;;;;;6307059;22;20169;-94
2023/06/14 02:51:21;;;;;;;17.13;6.18;;;;;;;;;;6307025;22;20164;-94
2023/06/14 02:54:26;;;;;;;19.60;6.75;;;;;;;;;;6305760;22;20177;-94
2023/06/14 02:57:33;;;;;;;14.48;6.40;;;;;;;;;;6304411;22;20153;-91
2023/06/14 03:00:40;;;;;;;13.55;5.82;;;;;;;;;;6305567;22;20213;-91
2023/06/14 03:03:46;;;;;;;17.02;6.57;;;;;;;;;;6305409;22;20199;-91
2023/06/14 03:06:51;;;;;;;14.55;6.30;;;;;;;;;;6306503;22;20165;-94
2023/06/14 03:09:58;;;;;;;14.38;6.03;;;;;;;;;;6306708;22;20169;-93
2023/06/14 03:13:06;;;;;;;14.85;5.85;;;;;;;;;;6304915;22;20218;-92
2023/06/14 03:16:12;;;;;;;17.67;5.68;;;;;;;;;;6307061;22;20215;-91
2023/06/14 03:19:19;;;;;;;9.95;5.13;;;;;;;;;;6305881;22;20192;-91
2023/06/14 03:22:25;;;;;;;12.90;5.50;;;;;;;;;;6306847;22;20165;-92
2023/06/14 03:25:32;;;;;;;15.07;5.93;;;;;;;;;;6305302;22;20181;-93
2023/06/14 03:28:40;;;;;;;15.93;6.50;;;;;;;;;;6305437;22;20149;-92
2023/06/14 03:31:59;;;;;;;13.40;5.10;;;;;;;;;;6305129;22;20165;-92
2023/06/14 03:35:07;;;;;;;16.05;5.50;;;;;;;;;;6308456;22;20659;-92
2023/06/14 03:38:12;;;;;;;13.32;5.40;;;;;;;;;;6305514;22;20216;-94
2023/06/14 03:41:17;;;;;;;13.35;5.50;;;;;;;;;;6306381;22;20149;-93
2023/06/14 03:44:25;;;;;;;16.65;5.43;;;;;;;;;;6307541;22;20255;-91
2023/06/14 03:47:30;;;;;;;12.27;5.32;;;;;;;;;;6307375;22;20149;-92
2023/06/14 03:50:37;;;;;;;12.43;5.18;;;;;;;;;;6307144;22;20188;-92
2023/06/14 03:53:43;;;;;;;12.95;4.60;;;;;;;;;;6307867;22;20213;-91
2023/06/14 03:57:01;;;;;;;11.50;5.00;;;;;;;;;;6306486;22;20145;-90
2023/06/14 04:00:11;;;;;;;12.82;4.57;;;;;;;;;;6305506;22;20199;-91
2023/06/14 04:07:09;;;;;;;10.02;4.30;;;;;;;;;;6307947;22;20220;-90
2023/06/14 04:10:16;;;;;;;11.13;4.40;;;;;;;;;;6307711;22;20231;-91
2023/06/14 04:13:22;;;;;;;10.23;4.05;;;;;;;;;;6306865;22;20150;-90
2023/06/14 04:16:29;;;;;;;7.15;4.45;;;;;;;;;;6305851;22;20173;-91
2023/06/14 04:19:35;;;;;;;11.07;4.28;;;;;;;;;;6305953;22;20208;-90
2023/06/14 04:22:43;;;;;;;10.93;4.47;;;;;;;;;;6310403;22;20145;-91
2023/06/14 04:29:14;;;;;;;10.55;4.50;;;;;;;;;;6309614;22;20209;-90
2023/06/14 04:32:25;;;;;;;12.27;3.97;;;;;;;;;;6307021;22;20209;-92
2023/06/14 04:35:32;;;;;;;10.70;4.47;;;;;;;;;;6306703;22;20148;-92
2023/06/14 04:38:38;;;;;;;11.02;4.20;;;;;;;;;;6303226;22;20323;-93
2023/06/14 04:41:44;;;;;;;6.63;3.90;;;;;;;;;;6303034;22;20157;-93
2023/06/14 04:44:50;;;;;;;9.70;3.92;;;;;;;;;;6305729;22;20148;-91
2023/06/14 04:48:00;;;;;;;8.32;3.78;;;;;;;;;;6306720;22;20183;-92
2023/06/14 04:54:26;;;;;;;8.80;3.85;;;;;;;;;;6308672;22;20200;-90
2023/06/14 05:10:09;;;;;;;9.18;4.07;;;;;;;;;;6202923;22;20205;31
2023/06/14 05:13:17;;;;;;;14.57;4.72;;;;;;;;;;6186248;22;20171;-90
2023/06/14 05:16:25;;;;;;;7.18;4.28;;;;;;;;;;6185111;22;20187;-90
2023/06/14 05:20:07;;;;;;;12.55;4.82;;;;;;;;;;6185786;22;20203;-89
2023/06/14 05:23:15;;;;;;;10.57;4.78;;;;;;;;;;6181845;23;20168;-91
2023/06/14 05:26:23;;;;;;;10.10;4.90;;;;;;;;;;6181942;23;20148;-89
2023/06/14 05:29:31;;;;;;;8.75;4.18;;;;;;;;;;6184957;22;20176;-89
2023/06/14 05:32:38;;;;;;;10.05;4.55;;;;;;;;;;6187988;22;20167;-91
2023/06/14 05:35:43;;;;;;;9.65;4.57;;;;;;;;;;6185435;23;20171;-90
2023/06/14 05:38:57;;;;;;;7.13;3.85;;;;;;;;;;6185556;23;20191;-91
2023/06/14 05:42:02;;;;;;;10.20;4.35;;;;;;;;;;6183276;23;20204;-90
2023/06/14 05:45:18;;;;;;;8.55;4.20;;;;;;;;;;6184608;22;20168;-90
2023/06/14 05:48:24;;;;;;;6.47;3.83;;;;;;;;;;6187656;23;20260;-89
2023/06/14 05:51:33;;;;;;;10.23;3.97;;;;;;;;;;6184331;23;20164;-90
2023/06/14 05:54:38;;;;;;;7.53;3.70;;;;;;;;;;6182901;23;20261;-89
2023/06/14 05:57:50;;;;;;;10.32;4.38;;;;;;;;;;6184221;22;20188;-91
2023/06/14 06:00:58;;;;;;;9.25;4.65;;;;;;;;;;6185439;22;20191;-90
2023/06/14 06:04:03;;;;;;;12.43;4.40;;;;;;;;;;6185640;23;20223;-89
2023/06/14 06:07:08;;;;;;;12.23;4.72;;;;;;;;;;6183626;23;20212;-88
2023/06/14 06:10:13;;;;;;;7.05;4.00;;;;;;;;;;6186087;23;20186;-87
2023/06/14 06:13:18;;;;;;;10.48;4.53;;;;;;;;;;6229055;23;20162;-89
2023/06/14 06:16:31;;;;;;;8.45;4.25;;;;;;;;;;6227771;23;20171;-91
2023/06/14 06:20:05;;;;;;;8.90;4.32;;;;;;;;;;6228605;23;20199;-89
2023/06/14 06:23:10;;;;;;;7.03;3.97;;;;;;;;;;6227245;23;20171;-90
2023/06/14 06:26:15;;;;;;;9.90;4.05;;;;;;;;;;6229592;23;20166;-88
2023/06/14 06:29:22;;;;;;;7.60;4.03;;;;;;;;;;6226921;23;20480;-87
2023/06/14 06:32:29;;;;;;;12.65;4.15;;;;;;;;;;6229488;23;20167;-87
2023/06/14 06:35:34;;;;;;;7.40;3.85;;;;;;;;;;6229837;23;20266;-90
2023/06/14 06:38:39;;;;;;;8.18;3.97;;;;;;;;;;6229535;23;20147;-88
2023/06/14 06:41:44;;;;;;;8.07;3.40;;;;;;;;;;6230098;23;20306;-90
2023/06/14 06:44:49;;;;;;;8.93;3.70;;;;;;;;;;6251043;23;20263;-91
2023/06/14 06:47:56;;;;;;;7.78;3.90;;;;;;;;;;6232067;23;20868;-89
2023/06/14 06:51:01;;;;;;;9.23;4.65;;;;;;;;;;6232934;23;20170;-93
2023/06/14 06:54:08;;;;;;;9.65;3.70;;;;;;;;;;6230397;23;20159;-91
2023/06/14 06:57:17;;;;;;;7.22;3.47;;;;;;;;;;6232535;23;20171;-90
2023/06/14 07:00:23;;;;;;;7.07;3.78;;;;;;;;;;6231520;23;20195;-90
2023/06/14 07:03:31;;;;;;;8.73;3.58;;;;;;;;;;6231114;23;20166;-91
2023/06/14 07:06:37;;;;;;;19.65;6.28;;;;;;;;;;6231580;23;20199;-91
2023/06/14 07:09:42;;;;;;;6.30;2.92;;;;;;;;;;6229103;23;20175;-88
2023/06/14 07:12:48;;;;;;;5.75;2.85;;;;;;;;;;6230525;23;20175;-91
2023/06/14 07:15:56;;;;;;;11.20;3.92;;;;;;;;;;6233283;23;20171;-88
2023/06/14 07:19:03;;;;;;;5.63;3.10;;;;;;;;;;6232355;23;20238;-89
2023/06/14 07:22:09;;;;;;;5.50;2.92;;;;;;;;;;6231088;23;20232;-90
2023/06/14 07:25:15;;;;;;;4.97;3.25;;;;;;;;;;6232446;23;20171;-92
2023/06/14 07:28:21;;;;;;;6.47;3.33;;;;;;;;;;6231082;23;20175;-91
2023/06/14 07:31:27;;;;;;;4.75;2.58;;;;;;;;;;6229696;23;20171;-91
2023/06/14 07:34:35;;;;;;;4.13;2.60;;;;;;;;;;6230757;23;20222;-91
2023/06/14 07:37:40;;;;;;;7.63;2.50;;;;;;;;;;6230159;23;20171;-90
2023/06/14 07:40:45;;;;;;;7.93;2.97;;;;;;;;;;6231103;23;20155;-91
2023/06/14 07:43:52;;;;;;;7.75;2.95;;;;;;;;;;6227722;23;20166;-91
2023/06/14 07:47:05;;;;;;;6.93;3.22;;;;;;;;;;6228479;23;20148;-92
2023/06/14 07:50:12;;;;;;;4.82;2.45;;;;;;;;;;6229323;23;20692;-92
2023/06/14 07:53:18;;;;;;;8.18;3.00;;;;;;;;;;6228522;23;20242;-91
2023/06/14 07:56:50;;;;;;;4.95;2.40;;;;;;;;;;6228967;23;20626;-90
2023/06/14 07:59:55;;;;;;;5.18;2.63;;;;;;;;;;6229106;23;20206;-91
2023/06/14 08:03:00;;;;;;;4.63;2.72;;;;;;;;;;6230038;23;20175;-91
2023/06/14 08:06:17;;;;;;;3.85;2.67;;;;;;;;;;6229529;23;20171;-90
2023/06/14 08:09:22;;;;;;;7.13;2.78;;;;;;;;;;6230557;23;20202;-90
2023/06/14 08:12:28;;;;;;;8.13;3.13;;;;;;;;;;6229243;23;20226;-88
2023/06/14 08:15:33;;;;;;;6.50;2.42;;;;;;;;;;6229324;23;20187;-92
2023/06/14 08:18:40;;;;;;;6.43;2.47;;;;;;;;;;6230358;23;20155;-91
2023/06/14 08:21:48;;;;;;;6.47;2.75;;;;;;;;;;6232648;23;20168;-90
2023/06/14 08:24:54;;;;;;;4.78;2.42;;;;;;;;;;6215155;23;20174;-89
2023/06/14 08:28:00;;;;;;;4.35;2.60;;;;;;;;;;6234049;23;20195;-91
2023/06/14 08:31:06;;;;;;;5.35;2.80;;;;;;;;;;6233196;23;20199;-91
2023/06/14 08:34:11;;;;;;;6.65;2.35;;;;;;;;;;6232299;23;20218;-92
2023/06/14 08:37:20;;;;;;;8.63;3.63;;;;;;;;;;6233039;23;20155;-90
2023/06/14 08:40:25;;;;;;;8.40;2.85;;;;;;;;;;6231721;23;20213;-91
2023/06/14 08:43:30;;;;;;;8.65;2.63;;;;;;;;;;6230329;23;20163;-91
2023/06/14 08:46:36;;;;;;;5.57;2.38;;;;;;;;;;6229375;23;20166;-89
2023/06/14 08:49:44;;;;;;;9.15;2.60;;;;;;;;;;6232784;23;20190;-90
2023/06/14 08:52:53;;;;;;;5.05;2.60;;;;;;;;;;6231413;23;20174;-90
2023/06/14 08:56:01;;;;;;;4.22;2.65;;;;;;;;;;6230408;23;20600;-92
2023/06/14 08:59:08;;;;;;;5.53;2.45;;;;;;;;;;6229970;23;20658;-91
2023/06/14 09:08:16;;;;;;;5.45;2.83;;;;;;;;;;6195271;22;20189;-91
2023/06/14 09:11:21;;;;;;;7.30;3.00;;;;;;;;;;6304694;22;20207;-90
2023/06/14 09:14:26;;;;;;;7.68;2.85;;;;;;;;;;6302823;22;20164;-91
2023/06/14 09:17:38;;;;;;;5.57;2.38;;;;;;;;;;6301772;22;20238;-91
2023/06/14 09:20:44;;;;;;;7.85;2.17;;;;;;;;;;6301898;22;20167;-90
2023/06/14 09:23:51;;;;;;;6.28;2.28;;;;;;;;;;6306103;22;20161;-92
2023/06/14 09:26:57;;;;;;;5.35;2.33;;;;;;;;;;6305695;22;20187;-91
2023/06/14 09:30:08;;;;;;;5.88;2.30;;;;;;;;;;6304724;22;20184;-91
2023/06/14 09:33:18;;;;;;;3.95;2.42;;;;;;;;;;6303466;22;20164;-93
2023/06/14 09:36:24;;;;;;;4.88;2.75;;;;;;;;;;6303822;22;20176;-90
2023/06/14 09:39:31;;;;;;;7.28;2.80;;;;;;;;;;6305520;22;20600;-91
2023/06/14 09:42:37;;;;;;;5.32;2.67;;;;;;;;;;6302430;22;20686;-91
2023/06/14 09:45:45;;;;;;;5.15;2.58;;;;;;;;;;6303349;22;20167;-91
2023/06/14 09:48:50;;;;;;;6.07;2.40;;;;;;;;;;6300069;22;20242;-91
2023/06/14 09:51:57;;;;;;;5.78;2.53;;;;;;;;;;6302124;22;20144;-90
2023/06/14 09:55:11;;;;;;;3.70;2.42;;;;;;;;;;6302832;22;20164;-90
2023/06/14 09:58:18;;;;;;;5.95;2.42;;;;;;;;;;6304529;22;20169;-91
2023/06/14 10:01:24;;;;;;;4.82;2.60;;;;;;;;;;6303781;22;20165;-90
2023/06/14 10:04:32;;;;;;;5.68;3.20;;;;;;;;;;6300350;22;20169;-89
2023/06/14 10:07:40;;;;;;;3.90;2.60;;;;;;;;;;6304985;22;20188;-90
2023/06/14 10:10:47;;;;;;;4.75;2.40;;;;;;;;;;6303039;22;20623;-90
2023/06/14 10:13:52;;;;;;;6.65;2.35;;;;;;;;;;6306113;22;20165;-91
2023/06/14 10:17:02;;;;;;;8.57;4.57;;;;;;;;;;6302882;22;20226;-93
2023/06/14 10:20:21;;;;;;;7.35;2.63;;;;;;;;;;6304854;22;20169;-90
2023/06/14 10:23:27;;;;;;;5.38;2.55;;;;;;;;;;6303078;22;20153;-92
2023/06/14 10:26:34;;;;;;;4.35;2.63;;;;;;;;;;6303447;22;20174;-92
2023/06/14 10:29:55;;;;;;;5.20;2.28;;;;;;;;;;6302423;22;20247;-89
2023/06/14 10:33:09;;;;;;;4.35;2.65;;;;;;;;;;6302974;22;20174;-89
2023/06/14 10:36:28;;;;;;;6.75;2.63;;;;;;;;;;6306219;22;20237;-92
2023/06/14 10:39:42;;;;;;;4.93;2.67;;;;;;;;;;6308035;22;20173;-89
2023/06/14 10:42:54;;;;;;;10.93;2.65;;;;;;;;;;6307244;22;20161;-90
2023/06/14 10:46:25;;;;;;;6.60;2.70;;;;;;;;;;6305175;22;20189;-90
2023/06/14 10:49:44;;;;;;;4.80;2.28;;;;;;;;;;6307478;22;20188;-90
2023/06/14 10:52:49;;;;;;;7.82;2.47;;;;;;;;;;6306115;22;20178;-90
2023/06/14 10:56:28;;;;;;;4.68;2.45;;;;;;;;;;6304890;22;20161;-91
2023/06/14 10:59:37;;;;;;;7.75;2.60;;;;;;;;;;6306421;22;20153;-90
2023/06/14 11:03:07;;;;;;;9.15;2.72;;;;;;;;;;6306375;22;20177;-92
2023/06/14 11:06:15;;;;;;;4.45;2.20;;;;;;;;;;6306645;22;20258;-90
2023/06/14 11:09:37;;;;;;;6.18;2.22;;;;;;;;;;6292104;22;20209;-90
2023/06/14 11:12:43;;;;;;;4.88;2.78;;;;;;;;;;6293727;22;20726;-91
2023/06/14 11:15:52;;;;;;;7.65;2.17;;;;;;;;;;6293132;22;20161;-91
2023/06/14 11:19:03;;;;;;;4.43;2.40;;;;;;;;;;6294823;22;20164;-91
2023/06/14 11:22:09;;;;;;;4.63;2.40;;;;;;;;;;6293311;22;20172;-91
2023/06/14 11:25:17;;;;;;;7.05;2.40;;;;;;;;;;6295929;22;20157;-90
2023/06/14 11:28:25;;;;;;;5.18;2.17;;;;;;;;;;6294852;22;20154;-90
2023/06/14 11:31:34;;;;;;;4.20;2.47;;;;;;;;;;6294067;22;20193;-90
2023/06/14 11:34:42;;;;;;;9.65;2.75;;;;;;;;;;6293934;22;20173;-89
2023/06/14 11:37:47;;;;;;;7.53;2.35;;;;;;;;;;6293644;22;20173;-88
2023/06/14 11:40:52;;;;;;;7.25;2.40;;;;;;;;;;6294604;22;20158;-91
2023/06/14 11:43:57;;;;;;;5.45;2.47;;;;;;;;;;6297669;22;20165;-92
2023/06/14 11:47:07;;;;;;;9.23;2.85;;;;;;;;;;6294093;22;20235;-91
2023/06/14 11:50:14;;;;;;;6.85;2.50;;;;;;;;;;6292925;22;20266;-90
2023/06/14 11:53:20;;;;;;;6.43;2.75;;;;;;;;;;6293807;22;20200;-91
2023/06/14 11:56:56;;;;;;;8.23;3.20;;;;;;;;;;6293403;22;20169;-89
2023/06/14 12:00:04;;;;;;;4.93;2.20;;;;;;;;;;6276960;22;20161;-90
2023/06/14 12:03:18;;;;;;;9.80;2.90;;;;;;;;;;6292057;22;20154;-91
2023/06/14 12:06:32;;;;;;;7.78;2.80;;;;;;;;;;6292341;22;20158;-91
2023/06/14 12:09:39;;;;;;;5.20;2.20;;;;;;;;;;6293171;22;20232;-89
2023/06/14 12:12:45;;;;;;;8.45;2.58;;;;;;;;;;6293259;22;20170;-90
2023/06/14 12:15:55;;;;;;;5.05;2.78;;;;;;;;;;6293609;22;20189;-91
2023/06/14 12:19:10;;;;;;;6.20;2.25;;;;;;;;;;6293042;22;20170;-90
2023/06/14 12:22:15;;;;;;;6.03;2.33;;;;;;;;;;6291894;22;20165;-90
2023/06/14 12:25:30;;;;;;;7.40;2.20;;;;;;;;;;6293886;22;20145;-88
2023/06/14 12:28:36;;;;;;;5.90;2.65;;;;;;;;;;6291370;22;20177;-90
2023/06/14 12:31:43;;;;;;;5.47;2.35;;;;;;;;;;6294121;22;20237;-89
2023/06/14 12:34:49;;;;;;;5.10;2.60;;;;;;;;;;6292977;22;20196;-88
2023/06/14 12:37:56;;;;;;;3.97;2.45;;;;;;;;;;6295096;22;20217;-90
2023/06/14 12:41:01;;;;;;;4.43;2.20;;;;;;;;;;6294518;22;20173;-91
2023/06/14 12:44:06;;;;;;;4.45;2.30;;;;;;;;;;6293269;22;20236;-89
2023/06/14 12:47:13;;;;;;;4.97;2.28;;;;;;;;;;6293470;22;20204;-88
2023/06/14 12:50:20;;;;;;;3.47;2.22;;;;;;;;;;6294652;22;20658;-89
2023/06/14 12:53:26;;;;;;;7.97;2.65;;;;;;;;;;6292648;22;20265;-88
2023/06/14 12:56:34;;;;;;;3.53;2.05;;;;;;;;;;6292339;22;20192;-91
2023/06/14 12:59:40;;;;;;;4.63;2.30;;;;;;;;;;6292363;22;20162;-89
2023/06/14 13:02:45;;;;;;;6.78;2.50;;;;;;;;;;6295231;22;20196;-89
2023/06/14 13:05:53;;;;;;;8.43;2.47;;;;;;;;;;6296145;22;20169;-88
2023/06/14 13:09:03;;;;;;;4.25;2.20;;;;;;;;;;6293810;22;20185;-88
2023/06/14 13:12:10;;;;;;;4.47;2.33;;;;;;;;;;6294831;22;20188;-90
2023/06/14 13:15:17;;;;;;;3.30;2.45;;;;;;;;;;6295125;22;20180;-90
2023/06/14 13:18:26;;;;;;;3.30;2.20;;;;;;;;;;6292545;22;20299;-91
2023/06/14 13:21:33;;;;;;;3.63;2.22;;;;;;;;;;6292645;22;20172;-92
2023/06/14 13:24:38;;;;;;;7.50;2.40;;;;;;;;;;6291023;22;20177;-89
2023/06/14 13:27:49;;;;;;;7.30;2.55;;;;;;;;;;6273727;22;20231;-89
2023/06/14 13:30:55;;;;;;;7.63;2.63;;;;;;;;;;6291616;22;20197;-89
2023/06/14 13:34:00;;;;;;;4.28;2.05;;;;;;;;;;6293897;22;20169;-90
2023/06/14 13:37:13;;;;;;;3.42;2.30;;;;;;;;;;6294388;22;20483;-89
2023/06/14 13:40:19;;;;;;;4.13;2.15;;;;;;;;;;6294138;22;20160;-89
2023/06/14 13:43:26;;;;;;;5.30;2.50;;;;;;;;;;6293469;22;20170;-90
2023/06/14 13:46:32;;;;;;;4.82;2.78;;;;;;;;;;6293040;22;20564;-89
2023/06/14 13:49:38;;;;;;;4.20;2.20;;;;;;;;;;6292751;22;20161;-89
2023/06/14 13:52:44;;;;;;;5.40;2.55;;;;;;;;;;6293048;22;20193;-89
2023/06/14 13:55:54;;;;;;;5.18;2.50;;;;;;;;;;6293830;22;20164;-90
2023/06/14 13:59:00;;;;;;;3.17;1.98;;;;;;;;;;6295731;22;20160;-92
2023/06/14 14:02:05;;;;;;;6.05;2.50;;;;;;;;;;6296298;22;20279;-91
2023/06/14 14:08:31;;;;;;;4.22;2.10;;;;;;;;;;6302847;22;20258;-91
2023/06/14 14:11:39;;;;;;;5.82;2.28;;;;;;;;;;6307533;22;20171;-88
2023/06/14 14:14:46;;;;;;;5.85;2.38;;;;;;;;;;6307084;22;20169;-89
2023/06/14 14:18:25;;;;;;;3.53;2.20;;;;;;;;;;6308939;22;20225;-89
2023/06/14 14:21:31;;;;;;;4.93;2.60;;;;;;;;;;6307445;22;20161;-90
2023/06/14 14:24:38;;;;;;;4.90;2.45;;;;;;;;;;6306508;22;20616;-89
2023/06/14 14:27:45;;;;;;;4.25;2.33;;;;;;;;;;6307527;22;20202;-89
2023/06/14 14:30:51;;;;;;;4.18;2.42;;;;;;;;;;6307554;22;20196;-90
2023/06/14 14:33:57;;;;;;;5.57;2.75;;;;;;;;;;6308159;22;20164;-90
2023/06/14 14:37:03;;;;;;;4.50;2.70;;;;;;;;;;6308541;22;20165;-87
2023/06/14 14:40:12;;;;;;;5.70;2.20;;;;;;;;;;6309365;22;20158;-89
2023/06/14 14:43:18;;;;;;;5.32;2.25;;;;;;;;;;6313010;22;20156;-89
2023/06/14 14:46:24;;;;;;;6.38;2.53;;;;;;;;;;6310031;22;20212;-90
2023/06/14 14:49:36;;;;;;;5.63;2.70;;;;;;;;;;6309123;22;20169;-90
2023/06/14 14:52:42;;;;;;;5.05;2.28;;;;;;;;;;6307558;22;20193;-89
2023/06/14 14:55:55;;;;;;;7.57;2.42;;;;;;;;;;6309375;22;20192;-89
2023/06/14 14:59:01;;;;;;;6.50;2.47;;;;;;;;;;6308839;22;20388;-91
2023/06/14 15:02:07;;;;;;;35.33;20.15;;;;;;;;;;6309211;22;20244;-87
2023/06/14 15:05:13;;;;;;;5.15;2.40;;;;;;;;;;6308919;22;20220;-89
2023/06/14 15:08:19;;;;;;;3.75;2.45;;;;;;;;;;6307680;22;20184;-88
2023/06/14 15:11:27;;;;;;;4.55;2.60;;;;;;;;;;6308952;22;20212;-91
2023/06/14 15:14:32;;;;;;;6.55;2.47;;;;;;;;;;6312796;22;20156;-92
2023/06/14 15:17:37;;;;;;;4.97;2.60;;;;;;;;;;6309001;22;20177;-89
2023/06/14 15:20:43;;;;;;;6.20;2.60;;;;;;;;;;6314814;22;20152;-91
2023/06/14 22:53:40;;;;;;;7.20;4.07;;;;;;;;;;6263154;22;20243;-91
2023/06/14 22:57:19;;;;;;;12.13;4.10;;;;;;;;;;6307782;22;20153;-92
2023/06/14 23:00:25;;;;;;;9.57;4.53;;;;;;;;;;6309076;22;20149;-91
2023/06/14 23:03:30;;;;;;;7.13;4.10;;;;;;;;;;6309011;22;20219;-90
2023/06/14 23:06:37;;;;;;;5.88;3.55;;;;;;;;;;6307264;22;20603;-91
2023/06/14 23:09:44;;;;;;;9.05;4.55;;;;;;;;;;6307658;22;20153;-90
2023/06/14 23:12:49;;;;;;;9.20;4.47;;;;;;;;;;6306924;22;20185;-91
2023/06/14 23:15:55;;;;;;;6.75;4.00;;;;;;;;;;6307998;22;20165;-91
2023/06/14 23:19:45;;;;;;;7.05;4.05;;;;;;;;;;6308088;22;20164;-90
2023/06/14 23:22:51;;;;;;;7.57;4.05;;;;;;;;;;6306646;22;20545;-90
2023/06/14 23:26:06;;;;;;;14.13;4.70;;;;;;;;;;6307976;22;20172;-91
2023/06/14 23:29:12;;;;;;;8.07;4.63;;;;;;;;;;6308326;22;20160;-92
2023/06/14 23:32:18;;;;;;;7.43;4.50;;;;;;;;;;6306855;22;20189;-92
2023/06/14 23:35:26;;;;;;;7.50;4.57;;;;;;;;;;6309749;22;20149;-91
2023/06/14 23:38:31;;;;;;;9.15;4.22;;;;;;;;;;6308118;22;20219;-90
2023/06/14 23:41:40;;;;;;;6.70;4.15;;;;;;;;;;6308515;22;20169;-90
2023/06/14 23:44:46;;;;;;;10.45;4.15;;;;;;;;;;6308895;22;20168;-89
2023/06/14 23:47:52;;;;;;;8.27;4.35;;;;;;;;;;6307949;22;20231;-90
2023/06/14 23:50:57;;;;;;;8.75;4.38;;;;;;;;;;6308670;22;20165;-92
2023/06/14 23:54:02;;;;;;;8.23;4.10;;;;;;;;;;6307654;22;20223;-91
2023/06/14 23:57:10;;;;;;;6.70;4.30;;;;;;;;;;6305583;22;20176;-90
